»·PEaware :: AAL2792 KDEN-KPHX

AAL2792 :: KDEN-KPHX

FLIGHT INFORMATION

Flight Status: Arrived
Operator:
American Airlines
More flights by this operator :: More flights under this callsign
Pilot: Andrew C. (32327)
Aircraft: AIRBUS A321
(A321)
More flights by this aircraft type
Origin: KDEN Denver Intl
United States
Destination: KPHX Phoenix Sky Harbor Intl
United States
More flights between these airports :: More routes between these airports
Route: +SMMUR2 DAAYE GUP EAGUL6
File this flight plan on PilotEdge
Remarks:
Altitude:
(Current/Filed)
32,000ft
Speed:
(Current/Filed)
450kts
Departed: 25-Nov-20 05:32 PM
Arrived: 25-Nov-20 07:02 PM
Distance/Time
Traveled:
522nm/1:30
Distance/Time
To Go:
Arrived

Flight Plot

Page will automatically refresh every two minutes.

Flight plan parsing failed; only flown route is shown


Map Options




Map Legend


Flown Route
Filed Route
Departure Airport
Arrival Airport
Navaid (VOR, NDB)
Fix

Horizontal Profiles

Position Reports

Time Latitude Longitude Heading Altitude Ground
Speed
25-Nov-20 17:10 39.854483 -104.670664 185 5379ft 0kts
25-Nov-20 17:11 39.854483 -104.670664 185 5379ft 0kts
25-Nov-20 17:12 39.854483 -104.670664 185 5379ft 0kts
25-Nov-20 17:13 39.854483 -104.670664 185 5379ft 0kts
25-Nov-20 17:14 39.854483 -104.670664 185 5379ft 0kts
25-Nov-20 17:15 39.854628 -104.670643 187 5379ft 2kts
25-Nov-20 17:16 39.855266 -104.670482 191 5379ft 2kts
25-Nov-20 17:17 39.855510 -104.670417 191 5379ft 0kts
25-Nov-20 17:18 39.855510 -104.670417 191 5379ft 0kts
25-Nov-20 17:19 39.855510 -104.670417 191 5379ft 0kts
25-Nov-20 17:20 39.855489 -104.670434 213 5379ft 0kts
25-Nov-20 17:21 39.855291 -104.670779 251 5379ft 10kts
25-Nov-20 17:22 39.855889 -104.674619 275 5379ft 0kts
25-Nov-20 17:23 39.855917 -104.675496 270 5379ft 15kts
25-Nov-20 17:24 39.855938 -104.680740 271 5379ft 0kts
25-Nov-20 17:25 39.855083 -104.683990 179 5373ft 16kts
25-Nov-20 17:26 39.849354 -104.684051 180 5372ft 21kts
25-Nov-20 17:27 39.843367 -104.684119 180 5366ft 12kts
25-Nov-20 17:28 39.841812 -104.684133 180 5366ft 0kts
25-Nov-20 17:29 39.841812 -104.684133 180 5366ft 0kts
25-Nov-20 17:30 39.840737 -104.684325 234 5366ft 9kts
25-Nov-20 17:31 39.840654 -104.721387 270 5774ft 183kts
25-Nov-20 17:32 39.822575 -104.787182 244 7901ft 216kts
25-Nov-20 17:33 39.790834 -104.865900 244 9054ft 277kts
25-Nov-20 17:34 39.726141 -104.922953 191 10943ft 320kts
25-Nov-20 17:35 39.630843 -104.906218 159 12061ft 379kts
25-Nov-20 17:36 39.535229 -104.843279 150 14440ft 392kts
25-Nov-20 17:37 39.438732 -104.821299 183 16545ft 402kts
25-Nov-20 17:38 39.335776 -104.871998 217 18702ft 410kts
25-Nov-20 17:39 39.244370 -104.963561 217 20519ft 424kts
25-Nov-20 17:40 39.148633 -105.054968 212 22219ft 435kts
25-Nov-20 17:41 39.040825 -105.128544 206 23744ft 445kts
25-Nov-20 17:42 38.928788 -105.200845 206 25053ft 455kts
25-Nov-20 17:43 38.814031 -105.274539 206 26277ft 464kts
25-Nov-20 17:44 38.698858 -105.348394 207 27807ft 462kts
25-Nov-20 17:45 38.584021 -105.421867 207 29127ft 461kts
25-Nov-20 17:46 38.469672 -105.494743 207 30288ft 461kts
25-Nov-20 17:47 38.354865 -105.566717 207 31389ft 460kts
25-Nov-20 17:48 38.240001 -105.637945 207 31994ft 460kts
25-Nov-20 17:49 38.125002 -105.709397 206 31997ft 461kts
25-Nov-20 17:50 38.013877 -105.789380 217 31996ft 460kts
25-Nov-20 17:51 37.918991 -105.897421 227 31997ft 459kts
25-Nov-20 17:52 37.829169 -106.011851 226 31998ft 459kts
25-Nov-20 17:53 37.739053 -106.126168 227 32020ft 458kts
25-Nov-20 17:54 37.649071 -106.240062 227 32032ft 458kts
25-Nov-20 17:55 37.559149 -106.353466 227 32033ft 457kts
25-Nov-20 17:56 37.469324 -106.466331 227 32032ft 456kts
25-Nov-20 17:57 37.379208 -106.579184 227 32033ft 456kts
25-Nov-20 17:58 37.289603 -106.691145 227 32033ft 455kts
25-Nov-20 17:59 37.199480 -106.803543 227 32032ft 455kts
25-Nov-20 18:00 37.109654 -106.914861 227 32024ft 455kts
25-Nov-20 18:01 37.019614 -107.026035 227 31999ft 456kts
25-Nov-20 18:02 36.929015 -107.137481 228 31982ft 456kts
25-Nov-20 18:03 36.838250 -107.248278 228 31979ft 456kts
25-Nov-20 18:04 36.747339 -107.359043 228 31980ft 456kts
25-Nov-20 18:05 36.656839 -107.469176 228 31980ft 455kts
25-Nov-20 18:06 36.566248 -107.579082 229 31987ft 455kts
25-Nov-20 18:07 36.475110 -107.689413 228 32016ft 455kts
25-Nov-20 18:08 36.384414 -107.798999 228 32031ft 455kts
25-Nov-20 18:09 36.293562 -107.908131 229 32032ft 455kts
25-Nov-20 18:10 36.202627 -108.016925 229 32032ft 455kts
25-Nov-20 18:11 36.111571 -108.125500 229 32040ft 456kts
25-Nov-20 18:12 36.019986 -108.234337 229 32054ft 456kts
25-Nov-20 18:13 35.928664 -108.342470 229 32068ft 454kts
25-Nov-20 18:14 35.836855 -108.450379 230 32092ft 454kts
25-Nov-20 18:15 35.745372 -108.557762 230 32106ft 453kts
25-Nov-20 18:16 35.654448 -108.664411 230 32108ft 453kts
25-Nov-20 18:17 35.562584 -108.772120 231 32107ft 453kts
25-Nov-20 18:18 35.471722 -108.878704 234 32107ft 450kts
25-Nov-20 18:19 35.385758 -108.990066 235 32104ft 449kts
25-Nov-20 18:20 35.299641 -109.101444 236 32108ft 449kts
25-Nov-20 18:21 35.213905 -109.211907 236 32120ft 448kts
25-Nov-20 18:22 35.127826 -109.322448 236 32127ft 448kts
25-Nov-20 18:23 35.041899 -109.432433 236 32126ft 446kts
25-Nov-20 18:24 34.956063 -109.541918 237 32126ft 445kts
25-Nov-20 18:25 34.870548 -109.650397 236 32128ft 443kts
25-Nov-20 18:26 34.785586 -109.758394 236 32124ft 441kts
25-Nov-20 18:27 34.709499 -109.871657 247 32121ft 426kts
25-Nov-20 18:28 34.655695 -109.996725 255 31908ft 415kts
25-Nov-20 18:29 34.608496 -110.123096 255 30929ft 408kts
25-Nov-20 18:30 34.561557 -110.248539 255 29962ft 409kts
25-Nov-20 18:31 34.514400 -110.373999 255 28983ft 412kts
25-Nov-20 18:32 34.468771 -110.494287 256 27993ft 374kts
25-Nov-20 18:34 34.425728 -110.608188 255 27018ft 370kts
25-Nov-20 18:35 34.382688 -110.721444 255 26021ft 367kts
25-Nov-20 18:36 34.329267 -110.828234 238 25053ft 385kts
25-Nov-20 18:37 34.256403 -110.922522 236 24107ft 382kts
25-Nov-20 18:38 34.184235 -111.015562 236 23032ft 381kts
25-Nov-20 18:39 34.113447 -111.106527 236 21748ft 359kts
25-Nov-20 18:40 34.046455 -111.192670 235 20199ft 346kts
25-Nov-20 18:41 33.981846 -111.275394 235 18757ft 332kts
25-Nov-20 18:42 33.919783 -111.354698 235 17336ft 320kts
25-Nov-20 18:43 33.864910 -111.433969 245 16181ft 295kts
25-Nov-20 18:44 33.822083 -111.515709 245 14845ft 285kts
25-Nov-20 18:45 33.779712 -111.596111 244 13891ft 292kts
25-Nov-20 18:46 33.736387 -111.677380 243 12508ft 284kts
25-Nov-20 18:47 33.695549 -111.753998 244 11842ft 264kts
25-Nov-20 18:48 33.656335 -111.828200 241 10566ft 261kts
25-Nov-20 18:49 33.618451 -111.899339 240 9934ft 246kts
25-Nov-20 18:49 33.587974 -111.956743 238 8917ft 243kts
25-Nov-20 18:51 33.545689 -112.035866 238 7633ft 239kts
25-Nov-20 18:52 33.524799 -112.108020 272 7019ft 235kts
25-Nov-20 18:52 33.524398 -112.173131 269 7009ft 234kts
25-Nov-20 18:54 33.490234 -112.244132 191 5969ft 254kts
25-Nov-20 18:54 33.431612 -112.256298 190 4516ft 249kts
25-Nov-20 18:56 33.359708 -112.261272 142 3987ft 210kts
25-Nov-20 18:56 33.364095 -112.213117 40 4032ft 204kts
25-Nov-20 18:57 33.406678 -112.177418 25 3452ft 182kts
25-Nov-20 18:58 33.441468 -112.143027 66 2651ft 158kts
25-Nov-20 18:59 33.441379 -112.090724 92 2182ft 157kts
25-Nov-20 19:00 33.440847 -112.039023 89 1364ft 155kts
25-Nov-20 19:01 33.440879 -112.002916 91 1132ft 22kts
25-Nov-20 19:02 33.438996 -111.999411 87 1134ft 11kts
25-Nov-20 19:03 33.438895 -111.997042 264 1134ft 12kts
25-Nov-20 19:04 33.438540 -112.001702 192 1131ft 7kts
25-Nov-20 19:05 33.438343 -112.001719 179 1131ft 0kts

Navigation Log

Ident Type
Flight plan parsing failed, navigation log unavailable